sensor_id;sensor_type;location;lat;lon;timestamp;temperature;humidity
14307;DHT22;7237;49.500;11.400;2023-04-24T12:11:06;15.00;99.90
14307;DHT22;7237;49.500;11.400;2023-04-24T12:13:35;15.00;99.90
14307;DHT22;7237;49.500;11.400;2023-04-24T12:16:03;14.70;99.90
14307;DHT22;7237;49.500;11.400;2023-04-24T12:18:31;14.30;99.90
14307;DHT22;7237;49.500;11.400;2023-04-24T12:21:15;14.10;99.90
14307;DHT22;7237;49.500;11.400;2023-04-24T12:23:43;13.70;99.90
14307;DHT22;7237;49.500;11.400;2023-04-24T12:26:09;13.60;99.90
14307;DHT22;7237;49.500;11.400;2023-04-24T12:28:38;13.00;99.90
14307;DHT22;7237;49.500;11.400;2023-04-24T12:31:06;12.80;99.90
14307;DHT22;7237;49.500;11.400;2023-04-24T12:33:34;12.80;99.90
14307;DHT22;7237;49.500;11.400;2023-04-24T12:36:02;12.90;99.90
14307;DHT22;7237;49.500;11.400;2023-04-24T12:38:31;13.40;99.90
14307;DHT22;7237;49.500;11.400;2023-04-24T12:41:06;13.50;99.90
14307;DHT22;7237;49.500;11.400;2023-04-24T12:43:34;13.70;99.90
14307;DHT22;7237;49.500;11.400;2023-04-24T12:46:02;13.80;99.90
14307;DHT22;7237;49.500;11.400;2023-04-24T12:48:29;14.00;99.90
14307;DHT22;7237;49.500;11.400;2023-04-24T12:50:57;13.90;99.90
14307;DHT22;7237;49.500;11.400;2023-04-24T12:53:26;14.00;99.90
14307;DHT22;7237;49.500;11.400;2023-04-24T12:55:54;14.40;99.90
14307;DHT22;7237;49.500;11.400;2023-04-24T12:58:21;14.90;99.90
14307;DHT22;7237;49.500;11.400;2023-04-24T13:00:48;14.90;99.90
14307;DHT22;7237;49.500;11.400;2023-04-24T13:03:16;14.80;99.90
14307;DHT22;7237;49.500;11.400;2023-04-24T13:05:43;14.80;99.90
14307;DHT22;7237;49.500;11.400;2023-04-24T13:08:10;14.50;99.90
14307;DHT22;7237;49.500;11.400;2023-04-24T13:10:38;14.60;99.90
14307;DHT22;7237;49.500;11.400;2023-04-24T13:13:05;14.60;99.90
14307;DHT22;7237;49.500;11.400;2023-04-24T13:15:32;14.60;99.90
14307;DHT22;7237;49.500;11.400;2023-04-24T13:17:59;14.60;99.90
14307;DHT22;7237;49.500;11.400;2023-04-24T13:20:27;14.40;99.90
14307;DHT22;7237;49.500;11.400;2023-04-24T13:22:54;14.30;99.90
14307;DHT22;7237;49.500;11.400;2023-04-24T13:25:21;14.30;99.90
14307;DHT22;7237;49.500;11.400;2023-04-24T13:27:48;14.20;99.90
14307;DHT22;7237;49.500;11.400;2023-04-24T13:30:16;14.10;99.90
14307;DHT22;7237;49.500;11.400;2023-04-24T13:32:43;14.10;99.90
14307;DHT22;7237;49.500;11.400;2023-04-24T13:35:10;14.40;99.90
14307;DHT22;7237;49.500;11.400;2023-04-24T13:37:38;14.50;99.90
14307;DHT22;7237;49.500;11.400;2023-04-24T13:40:05;14.50;99.90
14307;DHT22;7237;49.500;11.400;2023-04-24T13:42:32;14.60;99.90
14307;DHT22;7237;49.500;11.400;2023-04-24T13:44:59;14.80;99.90
14307;DHT22;7237;49.500;11.400;2023-04-24T13:47:26;14.80;99.90
14307;DHT22;7237;49.500;11.400;2023-04-24T13:49:52;14.50;99.90
14307;DHT22;7237;49.500;11.400;2023-04-24T13:52:19;14.40;99.90
14307;DHT22;7237;49.500;11.400;2023-04-24T13:54:47;14.00;99.90
14307;DHT22;7237;49.500;11.400;2023-04-24T13:57:14;14.50;99.90
14307;DHT22;7237;49.500;11.400;2023-04-24T13:59:42;13.60;99.90
14307;DHT22;7237;49.500;11.400;2023-04-24T14:02:08;13.40;99.90
14307;DHT22;7237;49.500;11.400;2023-04-24T14:04:35;13.50;99.90
14307;DHT22;7237;49.500;11.400;2023-04-24T14:07:02;13.50;99.90
14307;DHT22;7237;49.500;11.400;2023-04-24T14:09:28;13.50;99.90
14307;DHT22;7237;49.500;11.400;2023-04-24T14:11:58;13.60;99.90
14307;DHT22;7237;49.500;11.400;2023-04-24T14:14:26;13.60;99.90
14307;DHT22;7237;49.500;11.400;2023-04-24T14:16:53;13.70;99.90
14307;DHT22;7237;49.500;11.400;2023-04-24T14:19:19;14.00;99.90
14307;DHT22;7237;49.500;11.400;2023-04-24T14:21:46;14.30;99.90
14307;DHT22;7237;49.500;11.400;2023-04-24T14:24:13;14.40;99.90
14307;DHT22;7237;49.500;11.400;2023-04-24T14:26:39;14.50;99.90
14307;DHT22;7237;49.500;11.400;2023-04-24T14:29:07;14.30;99.90
14307;DHT22;7237;49.500;11.400;2023-04-24T14:31:34;14.00;99.90
14307;DHT22;7237;49.500;11.400;2023-04-24T14:34:01;13.50;99.90
14307;DHT22;7237;49.500;11.400;2023-04-24T14:36:27;13.30;99.90
14307;DHT22;7237;49.500;11.400;2023-04-24T14:38:54;13.30;99.90
14307;DHT22;7237;49.500;11.400;2023-04-24T14:41:21;13.30;99.90
14307;DHT22;7237;49.500;11.400;2023-04-24T14:43:47;13.50;99.90
14307;DHT22;7237;49.500;11.400;2023-04-24T14:46:16;13.70;99.90
14307;DHT22;7237;49.500;11.400;2023-04-24T14:48:42;13.60;99.90
14307;DHT22;7237;49.500;11.400;2023-04-24T14:51:09;13.70;99.90
14307;DHT22;7237;49.500;11.400;2023-04-24T14:53:36;13.90;99.90
14307;DHT22;7237;49.500;11.400;2023-04-24T14:56:02;13.90;99.90
14307;DHT22;7237;49.500;11.400;2023-04-24T14:58:29;13.90;99.90
14307;DHT22;7237;49.500;11.400;2023-04-24T15:00:56;13.90;99.90
14307;DHT22;7237;49.500;11.400;2023-04-24T15:03:24;14.50;99.90
14307;DHT22;7237;49.500;11.400;2023-04-24T15:05:52;14.30;99.90
14307;DHT22;7237;49.500;11.400;2023-04-24T15:08:18;14.30;99.90
14307;DHT22;7237;49.500;11.400;2023-04-24T15:10:46;14.20;99.90
14307;DHT22;7237;49.500;11.400;2023-04-24T15:13:13;14.00;99.90
14307;DHT22;7237;49.500;11.400;2023-04-24T15:35:23;14.50;99.90
14307;DHT22;7237;49.500;11.400;2023-04-24T15:37:51;14.90;99.90
14307;DHT22;7237;49.500;11.400;2023-04-24T15:40:18;15.60;99.90
14307;DHT22;7237;49.500;11.400;2023-04-24T15:42:45;15.30;99.90
14307;DHT22;7237;49.500;11.400;2023-04-24T15:45:11;15.20;99.90
14307;DHT22;7237;49.500;11.400;2023-04-24T15:47:38;14.80;99.90
14307;DHT22;7237;49.500;11.400;2023-04-24T15:50:06;14.50;99.90
14307;DHT22;7237;49.500;11.400;2023-04-24T15:52:33;14.30;99.90
14307;DHT22;7237;49.500;11.400;2023-04-24T15:55:02;14.50;99.90
14307;DHT22;7237;49.500;11.400;2023-04-24T15:57:29;13.90;99.90
14307;DHT22;7237;49.500;11.400;2023-04-24T15:59:56;14.30;99.90
14307;DHT22;7237;49.500;11.400;2023-04-24T16:02:23;14.10;99.90
14307;DHT22;7237;49.500;11.400;2023-04-24T16:04:50;14.20;99.90
14307;DHT22;7237;49.500;11.400;2023-04-24T16:07:17;13.90;99.90
14307;DHT22;7237;49.500;11.400;2023-04-24T16:09:44;13.70;99.90
14307;DHT22;7237;49.500;11.400;2023-04-24T16:12:12;13.50;99.90
14307;DHT22;7237;49.500;11.400;2023-04-24T16:14:39;13.40;99.90
14307;DHT22;7237;49.500;11.400;2023-04-24T16:17:05;13.20;99.90
14307;DHT22;7237;49.500;11.400;2023-04-24T16:19:32;13.00;99.90
14307;DHT22;7237;49.500;11.400;2023-04-24T16:21:59;12.90;99.90
14307;DHT22;7237;49.500;11.400;2023-04-24T16:24:27;12.70;99.90
14307;DHT22;7237;49.500;11.400;2023-04-24T16:26:54;12.10;99.90
14307;DHT22;7237;49.500;11.400;2023-04-24T16:29:23;12.00;99.90
14307;DHT22;7237;49.500;11.400;2023-04-24T16:31:50;11.70;99.90
14307;DHT22;7237;49.500;11.400;2023-04-24T16:34:16;11.40;99.90
14307;DHT22;7237;49.500;11.400;2023-04-24T16:36:43;11.50;99.90
14307;DHT22;7237;49.500;11.400;2023-04-24T16:39:10;12.10;99.90
14307;DHT22;7237;49.500;11.400;2023-04-24T16:41:37;11.20;99.90
14307;DHT22;7237;49.500;11.400;2023-04-24T16:44:04;10.80;99.90
14307;DHT22;7237;49.500;11.400;2023-04-24T16:46:33;11.00;99.90
14307;DHT22;7237;49.500;11.400;2023-04-24T16:48:59;11.00;99.90
14307;DHT22;7237;49.500;11.400;2023-04-24T16:51:26;10.90;99.90
14307;DHT22;7237;49.500;11.400;2023-04-24T16:53:53;10.90;99.90
14307;DHT22;7237;49.500;11.400;2023-04-24T16:56:20;11.00;99.90
14307;DHT22;7237;49.500;11.400;2023-04-24T16:58:47;11.10;99.90
14307;DHT22;7237;49.500;11.400;2023-04-24T17:01:13;11.20;99.90
14307;DHT22;7237;49.500;11.400;2023-04-24T17:03:41;10.90;99.90
14307;DHT22;7237;49.500;11.400;2023-04-24T17:06:08;11.20;99.90
14307;DHT22;7237;49.500;11.400;2023-04-24T17:08:35;11.60;99.90
14307;DHT22;7237;49.500;11.400;2023-04-24T17:11:01;11.40;99.90
14307;DHT22;7237;49.500;11.400;2023-04-24T17:13:28;11.60;99.90
14307;DHT22;7237;49.500;11.400;2023-04-24T17:15:55;12.10;99.90
14307;DHT22;7237;49.500;11.400;2023-04-24T17:18:21;12.20;99.90
14307;DHT22;7237;49.500;11.400;2023-04-24T17:20:50;12.30;99.90
14307;DHT22;7237;49.500;11.400;2023-04-24T17:23:16;12.70;99.90
14307;DHT22;7237;49.500;11.400;2023-04-24T17:25:43;12.20;99.90
14307;DHT22;7237;49.500;11.400;2023-04-24T17:28:18;12.20;99.90
14307;DHT22;7237;49.500;11.400;2023-04-24T17:30:46;12.40;99.90
14307;DHT22;7237;49.500;11.400;2023-04-24T17:33:13;12.20;99.90
14307;DHT22;7237;49.500;11.400;2023-04-24T17:35:40;12.30;99.90
14307;DHT22;7237;49.500;11.400;2023-04-24T17:38:08;12.20;99.90
14307;DHT22;7237;49.500;11.400;2023-04-24T17:40:34;12.00;99.90
14307;DHT22;7237;49.500;11.400;2023-04-24T17:43:02;11.50;99.90
14307;DHT22;7237;49.500;11.400;2023-04-24T17:45:29;11.70;99.90
14307;DHT22;7237;49.500;11.400;2023-04-24T17:47:55;11.80;99.90
14307;DHT22;7237;49.500;11.400;2023-04-24T17:50:22;11.80;99.90
14307;DHT22;7237;49.500;11.400;2023-04-24T17:52:49;11.80;99.90
14307;DHT22;7237;49.500;11.400;2023-04-24T17:55:17;11.90;99.90
14307;DHT22;7237;49.500;11.400;2023-04-24T17:57:44;12.00;99.90
14307;DHT22;7237;49.500;11.400;2023-04-24T18:00:11;12.00;99.90
14307;DHT22;7237;49.500;11.400;2023-04-24T18:02:38;11.70;99.90
14307;DHT22;7237;49.500;11.400;2023-04-24T18:05:05;12.00;99.90
14307;DHT22;7237;49.500;11.400;2023-04-24T18:07:32;11.20;99.90
14307;DHT22;7237;49.500;11.400;2023-04-24T18:09:59;11.20;99.90
14307;DHT22;7237;49.500;11.400;2023-04-24T18:12:27;11.10;99.90
14307;DHT22;7237;49.500;11.400;2023-04-24T18:14:54;11.00;99.90
14307;DHT22;7237;49.500;11.400;2023-04-24T18:17:20;10.70;99.90
14307;DHT22;7237;49.500;11.400;2023-04-24T18:19:47;10.70;99.90
14307;DHT22;7237;49.500;11.400;2023-04-24T18:22:14;10.60;99.90
14307;DHT22;7237;49.500;11.400;2023-04-24T18:24:40;10.50;99.90
14307;DHT22;7237;49.500;11.400;2023-04-24T18:27:07;10.00;99.90
14307;DHT22;7237;49.500;11.400;2023-04-24T18:29:35;10.20;99.90
14307;DHT22;7237;49.500;11.400;2023-04-24T18:32:02;10.10;99.90
14307;DHT22;7237;49.500;11.400;2023-04-24T18:34:29;10.00;99.90
14307;DHT22;7237;49.500;11.400;2023-04-24T18:36:56;9.50;99.90
14307;DHT22;7237;49.500;11.400;2023-04-24T18:39:23;9.70;99.90
14307;DHT22;7237;49.500;11.400;2023-04-24T18:44:16;9.30;99.90
14307;DHT22;7237;49.500;11.400;2023-04-24T18:46:45;9.40;99.90
14307;DHT22;7237;49.500;11.400;2023-04-24T18:49:12;9.40;99.90
14307;DHT22;7237;49.500;11.400;2023-04-24T18:51:38;9.20;99.90
14307;DHT22;7237;49.500;11.400;2023-04-24T18:54:05;9.10;99.90
14307;DHT22;7237;49.500;11.400;2023-04-24T18:56:32;9.10;99.90
14307;DHT22;7237;49.500;11.400;2023-04-24T18:58:59;9.10;99.90
14307;DHT22;7237;49.500;11.400;2023-04-24T19:01:25;9.00;99.90
14307;DHT22;7237;49.500;11.400;2023-04-24T19:03:53;9.00;99.90
14307;DHT22;7237;49.500;11.400;2023-04-24T19:06:21;9.00;99.90
14307;DHT22;7237;49.500;11.400;2023-04-24T19:08:47;9.10;99.90
14307;DHT22;7237;49.500;11.400;2023-04-24T19:11:14;8.80;99.90
14307;DHT22;7237;49.500;11.400;2023-04-24T19:13:41;8.60;99.90
14307;DHT22;7237;49.500;11.400;2023-04-24T19:16:08;8.70;99.90
14307;DHT22;7237;49.500;11.400;2023-04-24T19:18:35;8.60;99.90
14307;DHT22;7237;49.500;11.400;2023-04-24T19:21:03;8.70;99.90
14307;DHT22;7237;49.500;11.400;2023-04-24T19:23:30;8.70;99.90
14307;DHT22;7237;49.500;11.400;2023-04-24T19:26:00;8.50;99.90
14307;DHT22;7237;49.500;11.400;2023-04-24T19:28:27;8.00;99.90
14307;DHT22;7237;49.500;11.400;2023-04-24T19:30:54;8.20;99.90
14307;DHT22;7237;49.500;11.400;2023-04-24T19:33:22;8.50;99.90
14307;DHT22;7237;49.500;11.400;2023-04-24T19:35:49;8.50;99.90
14307;DHT22;7237;49.500;11.400;2023-04-24T19:38:17;8.60;99.90
14307;DHT22;7237;49.500;11.400;2023-04-24T19:40:44;8.80;99.90
14307;DHT22;7237;49.500;11.400;2023-04-24T19:43:11;8.60;99.90
14307;DHT22;7237;49.500;11.400;2023-04-24T19:45:38;8.70;99.90
14307;DHT22;7237;49.500;11.400;2023-04-24T19:48:05;8.40;99.90
14307;DHT22;7237;49.500;11.400;2023-04-24T19:50:31;8.30;99.90
14307;DHT22;7237;49.500;11.400;2023-04-24T19:52:59;8.40;99.90
14307;DHT22;7237;49.500;11.400;2023-04-24T19:55:27;7.90;99.90
14307;DHT22;7237;49.500;11.400;2023-04-24T19:57:54;8.00;99.90
14307;DHT22;7237;49.500;11.400;2023-04-24T20:00:21;8.20;99.90
14307;DHT22;7237;49.500;11.400;2023-04-24T20:02:47;8.00;99.90
14307;DHT22;7237;49.500;11.400;2023-04-24T20:05:14;8.10;99.90
14307;DHT22;7237;49.500;11.400;2023-04-24T20:07:41;8.10;99.90
14307;DHT22;7237;49.500;11.400;2023-04-24T20:10:09;8.00;99.90
14307;DHT22;7237;49.500;11.400;2023-04-24T20:12:37;8.00;99.90
14307;DHT22;7237;49.500;11.400;2023-04-24T20:15:04;8.00;99.90
14307;DHT22;7237;49.500;11.400;2023-04-24T20:17:31;7.90;99.90
14307;DHT22;7237;49.500;11.400;2023-04-24T20:19:58;7.90;99.90
14307;DHT22;7237;49.500;11.400;2023-04-24T20:22:25;7.90;99.90
14307;DHT22;7237;49.500;11.400;2023-04-24T20:24:51;8.30;99.90
14307;DHT22;7237;49.500;11.400;2023-04-24T20:27:18;7.90;99.90
14307;DHT22;7237;49.500;11.400;2023-04-24T20:29:46;8.00;99.90
14307;DHT22;7237;49.500;11.400;2023-04-24T20:32:13;8.10;99.90
14307;DHT22;7237;49.500;11.400;2023-04-24T20:34:39;8.20;99.90
14307;DHT22;7237;49.500;11.400;2023-04-24T20:37:06;8.70;99.90
14307;DHT22;7237;49.500;11.400;2023-04-24T20:39:33;8.30;99.90
14307;DHT22;7237;49.500;11.400;2023-04-24T20:41:59;7.80;99.90
14307;DHT22;7237;49.500;11.400;2023-04-24T20:44:26;7.90;99.90
14307;DHT22;7237;49.500;11.400;2023-04-24T20:46:54;8.10;99.90
14307;DHT22;7237;49.500;11.400;2023-04-24T20:49:21;8.40;99.90
14307;DHT22;7237;49.500;11.400;2023-04-24T20:51:47;8.50;99.90
14307;DHT22;7237;49.500;11.400;2023-04-24T20:54:14;8.60;99.90
14307;DHT22;7237;49.500;11.400;2023-04-24T20:56:41;8.30;99.90
14307;DHT22;7237;49.500;11.400;2023-04-24T20:59:07;8.40;99.90
14307;DHT22;7237;49.500;11.400;2023-04-24T21:01:34;8.10;99.90
14307;DHT22;7237;49.500;11.400;2023-04-24T21:04:02;8.00;99.90
14307;DHT22;7237;49.500;11.400;2023-04-24T21:06:29;7.90;99.90
14307;DHT22;7237;49.500;11.400;2023-04-24T21:08:56;7.70;99.90
14307;DHT22;7237;49.500;11.400;2023-04-24T21:11:23;7.50;99.90
14307;DHT22;7237;49.500;11.400;2023-04-24T21:13:49;7.40;99.90
14307;DHT22;7237;49.500;11.400;2023-04-24T21:16:16;7.20;99.90
14307;DHT22;7237;49.500;11.400;2023-04-24T21:18:43;6.90;99.90
14307;DHT22;7237;49.500;11.400;2023-04-24T21:21:11;7.00;99.90
14307;DHT22;7237;49.500;11.400;2023-04-24T21:23:37;6.50;99.90
14307;DHT22;7237;49.500;11.400;2023-04-24T21:26:05;6.80;99.90
14307;DHT22;7237;49.500;11.400;2023-04-24T21:28:32;6.70;99.90
14307;DHT22;7237;49.500;11.400;2023-04-24T21:33:26;6.50;99.90
14307;DHT22;7237;49.500;11.400;2023-04-24T21:35:53;6.60;99.90
14307;DHT22;7237;49.500;11.400;2023-04-24T21:38:22;6.70;99.90
14307;DHT22;7237;49.500;11.400;2023-04-24T21:40:49;6.60;99.90
14307;DHT22;7237;49.500;11.400;2023-04-24T21:43:16;6.70;99.90
14307;DHT22;7237;49.500;11.400;2023-04-24T21:45:43;6.60;99.90
14307;DHT22;7237;49.500;11.400;2023-04-24T21:48:09;6.80;99.90
14307;DHT22;7237;49.500;11.400;2023-04-24T21:55:33;6.30;99.90
14307;DHT22;7237;49.500;11.400;2023-04-24T21:58:00;6.20;99.90
14307;DHT22;7237;49.500;11.400;2023-04-24T22:00:27;6.40;99.90
14307;DHT22;7237;49.500;11.400;2023-04-24T22:02:54;6.30;99.90
14307;DHT22;7237;49.500;11.400;2023-04-24T22:12:47;5.90;99.90
14307;DHT22;7237;49.500;11.400;2023-04-24T22:15:13;5.90;99.90
14307;DHT22;7237;49.500;11.400;2023-04-24T22:17:40;5.90;99.90
